• Join FlightAware (Why Join?)
  • Login
  • US Flag 
07:50AM EDT


 

Airport Tracker/Info


-or-


 

Live Flight TrackerFlight Track Log ✈ N724AE ✈ 17-Apr-2013 ✈ KAEX - KDFW

Flight Track Log - Related Links

Times and Time Zones

All times are in EDT time to prevent confusion due to time zone crossing. See the N724AE flight status page for this flight to view local times or setup timezone preferences in your user account.

Time Position Orientation Groundspeed Altitude Reporting Facility
EDT Latitude Longitude Course Direction KTS MPH feet Rate Location/Type
12:28PM 31.2994 -92.5464 263° West 184 212 1,500  Level Houston Center
12:29PM 31.2958 -92.5833 263° West 222 255 2,500 2,160 Climbing Houston Center
12:30PM 31.3128 -92.6319 292° West 245 282 4,400 2,520 Climbing Houston Center
12:31PM 31.3433 -92.7153 293° West 265 305 7,000 2,640 Climbing Houston Center
12:32PM 31.3756 -92.8008 294° West 282 325 9,900 2,580 Climbing Houston Center
12:33PM 31.4156 -92.9089 293° West 299 344 12,400 2,040 Climbing Houston Center
12:34PM 31.4508 -93.0056 293° West 317 365 14,200 1,680 Climbing Houston Center
12:35PM 31.4883 -93.1064 294° West 335 386 16,000 1,680 Climbing Houston Center
12:36PM 31.5264 -93.2100 293° West 345 397 17,700 1,680 Climbing Houston Center
12:37PM 31.5667 -93.3164 294° West 354 407 19,500 1,800 Climbing Houston Center
12:38PM 31.6139 -93.4489 293° West 366 421 21,500 1,500 Climbing Houston Center
12:39PM 31.6489 -93.5481 293° West 371 427 22,500 1,140 Climbing Fort Worth Center
12:40PM 31.6922 -93.6658 293° West 383 441 23,800 1,320 Climbing Fort Worth Center
12:41PM 31.7394 -93.7836 295° West 393 452 25,200 1,740 Climbing Fort Worth Center
12:42PM 31.7967 -93.8889 303° West 393 452 27,300 1,620 Climbing Fort Worth Center
12:43PM 31.8456 -93.9944 299° West 387 445 28,500 1,080 Climbing Fort Worth Center
12:44PM 31.8656 -94.1161 281° West 371 427 29,500 960 Climbing Fort Worth Center
12:45PM 31.8853 -94.2400 281° West 381 438 30,500 1,020 Climbing Fort Worth Center
12:46PM 31.9075 -94.3714 281° West 395 455 31,600 720 Climbing Fort Worth Center
12:47PM 31.9269 -94.4981 280° West 400 460 32,000 180 Climbing Fort Worth Center
12:48PM 31.9467 -94.6247 280° West 400 460 32,000  Level Fort Worth Center
12:49PM 31.9661 -94.7517 280° West 400 460 32,000  Level Fort Worth Center
12:50PM 31.9853 -94.8733 281° West 395 455 32,000  Level Fort Worth Center
12:51PM 32.0044 -94.9978 280° West 395 455 32,000  Level Fort Worth Center
12:52PM 32.0233 -95.1197 280° West 390 449 32,000  Level Fort Worth Center
12:53PM 32.0425 -95.2492 280° West 390 449 32,000  Level Fort Worth Center
12:54PM 32.0611 -95.3764 280° West 390 449 32,000 -480 Level Fort Worth Center
12:55PM 32.0800 -95.5033 280° West 395 455 31,100 -1,260 Descending Fort Worth Center
12:56PM 32.1050 -95.6450 282° West 402 463 29,500 -1,620 Descending Fort Worth Center
12:57PM 32.1236 -95.7844 279° West 418 481 27,900 -1,560 Descending Fort Worth Center
12:58PM 32.1731 -95.9114 295° West 418 481 26,400 -1,500 Descending Fort Worth Center
12:59PM 32.2225 -96.0406 294° West 432 497 24,900 -1,380 Descending Fort Worth Center
01:00PM 32.2678 -96.1578 295° West 445 512 23,700 -2,280 Descending Fort Worth Center
01:01PM 32.3233 -96.2997 295° West 434 499 20,400 -3,180 Descending Fort Worth Center
01:02PM 32.3658 -96.4122 294° West 429 494 17,400 -3,000 Descending Fort Worth Center
01:03PM 32.4378 -96.5222 308° West 399 459 14,400 -2,820 Descending Fort Worth Center
01:04PM 32.5092 -96.6031 316° Northwest 389 448 11,800 -1,740 Descending Fort Worth Center
01:05PM 32.5914 -96.7008 315° West 383 441 11,000 -420 Descending Fort Worth Center
01:06PM 32.6647 -96.7892 315° West 383 441 11,000  Level Fort Worth Center
01:07PM 32.7500 -96.8833 317° Northwest 373 429 11,000  Level Dallas / Fort Worth TRACON
01:08PM 32.8000 -96.9500 312° West 287 330 11,000 -300 Level Dallas / Fort Worth TRACON
01:09PM 32.8333 -97.0167 301° West 249 287 10,500 -900 Descending Dallas / Fort Worth TRACON
01:10PM 32.8667 -97.0833 301° West 239 275 9,200 -1,500 Descending Dallas / Fort Worth TRACON
01:11PM 32.9000 -97.1667 295° West 242 278 7,600 -1,620 Descending Dallas / Fort Worth TRACON
01:12PM 32.9314 -97.2303 300° West 237 273 6,000 -1,560 Descending Fort Worth Center
01:13PM 32.9711 -97.2944 306° West 237 273 4,600 -900 Descending Fort Worth Center
01:14PM 33.0358 -97.3044 353° North 220 253 4,200 -420 Descending Fort Worth Center
01:15PM 33.0336 -97.2153 92° East 81 93 3,800 -420 Descending Fort Worth Center